sensor_id;sensor_type;location;lat;lon;timestamp;temperature;humidity
32522;DHT22;18963;51.504;5.316;2022-11-20T00:00:34;-1.10;99.90
32522;DHT22;18963;51.504;5.316;2022-11-20T00:03:00;-1.00;99.90
32522;DHT22;18963;51.504;5.316;2022-11-20T00:05:25;-1.10;99.90
32522;DHT22;18963;51.504;5.316;2022-11-20T00:07:50;-1.10;99.90
32522;DHT22;18963;51.504;5.316;2022-11-20T00:10:16;-1.10;99.90
32522;DHT22;18963;51.504;5.316;2022-11-20T00:12:41;-1.10;99.90
32522;DHT22;18963;51.504;5.316;2022-11-20T00:15:07;-1.20;99.90
32522;DHT22;18963;51.504;5.316;2022-11-20T00:17:33;-1.20;99.90
32522;DHT22;18963;51.504;5.316;2022-11-20T00:19:58;-1.20;99.90
32522;DHT22;18963;51.504;5.316;2022-11-20T00:22:24;-1.20;99.90
32522;DHT22;18963;51.504;5.316;2022-11-20T00:24:50;-1.20;99.90
32522;DHT22;18963;51.504;5.316;2022-11-20T00:27:15;-1.20;99.90
32522;DHT22;18963;51.504;5.316;2022-11-20T00:29:41;-1.20;99.90
32522;DHT22;18963;51.504;5.316;2022-11-20T00:32:06;-1.20;99.90
32522;DHT22;18963;51.504;5.316;2022-11-20T00:34:31;-1.30;99.90
32522;DHT22;18963;51.504;5.316;2022-11-20T00:36:57;-1.30;99.90
32522;DHT22;18963;51.504;5.316;2022-11-20T00:39:22;-1.30;99.90
32522;DHT22;18963;51.504;5.316;2022-11-20T00:41:48;-1.30;99.90
32522;DHT22;18963;51.504;5.316;2022-11-20T00:44:13;-1.30;99.90
32522;DHT22;18963;51.504;5.316;2022-11-20T00:46:39;-1.30;99.90
32522;DHT22;18963;51.504;5.316;2022-11-20T00:49:04;-1.30;99.90
32522;DHT22;18963;51.504;5.316;2022-11-20T00:51:30;-1.30;99.90
32522;DHT22;18963;51.504;5.316;2022-11-20T00:53:56;-1.40;99.90
32522;DHT22;18963;51.504;5.316;2022-11-20T00:56:22;-1.40;99.90
32522;DHT22;18963;51.504;5.316;2022-11-20T00:58:47;-1.40;99.90
32522;DHT22;18963;51.504;5.316;2022-11-20T01:01:31;-1.50;99.90
32522;DHT22;18963;51.504;5.316;2022-11-20T01:03:58;-1.50;99.90
32522;DHT22;18963;51.504;5.316;2022-11-20T01:06:25;-1.50;99.90
32522;DHT22;18963;51.504;5.316;2022-11-20T01:08:52;-1.60;99.90
32522;DHT22;18963;51.504;5.316;2022-11-20T01:11:19;-1.60;99.90
32522;DHT22;18963;51.504;5.316;2022-11-20T01:13:45;-1.70;99.90
32522;DHT22;18963;51.504;5.316;2022-11-20T01:16:13;-1.70;99.90
32522;DHT22;18963;51.504;5.316;2022-11-20T01:18:39;-1.80;99.90
32522;DHT22;18963;51.504;5.316;2022-11-20T01:21:22;-1.80;99.90
32522;DHT22;18963;51.504;5.316;2022-11-20T01:23:48;-1.90;99.90
32522;DHT22;18963;51.504;5.316;2022-11-20T01:26:19;-1.90;99.90
32522;DHT22;18963;51.504;5.316;2022-11-20T01:28:45;-2.00;99.90
32522;DHT22;18963;51.504;5.316;2022-11-20T01:31:11;-2.00;99.90
32522;DHT22;18963;51.504;5.316;2022-11-20T01:33:38;-2.00;99.90
32522;DHT22;18963;51.504;5.316;2022-11-20T01:36:05;-2.00;99.90
32522;DHT22;18963;51.504;5.316;2022-11-20T01:38:30;-1.90;99.90
32522;DHT22;18963;51.504;5.316;2022-11-20T01:40:56;-1.90;99.90
32522;DHT22;18963;51.504;5.316;2022-11-20T01:43:21;-1.90;99.90
32522;DHT22;18963;51.504;5.316;2022-11-20T01:48:15;-1.90;99.90
32522;DHT22;18963;51.504;5.316;2022-11-20T01:50:42;-2.00;99.90
32522;DHT22;18963;51.504;5.316;2022-11-20T01:53:09;-2.00;99.90
32522;DHT22;18963;51.504;5.316;2022-11-20T01:55:36;-2.00;99.90
32522;DHT22;18963;51.504;5.316;2022-11-20T01:58:04;-2.10;99.90
32522;DHT22;18963;51.504;5.316;2022-11-20T02:00:30;-2.10;99.90
32522;DHT22;18963;51.504;5.316;2022-11-20T02:03:00;-2.10;99.90
32522;DHT22;18963;51.504;5.316;2022-11-20T02:05:49;-2.10;99.90
32522;DHT22;18963;51.504;5.316;2022-11-20T02:08:13;-2.10;99.90
32522;DHT22;18963;51.504;5.316;2022-11-20T02:10:39;-2.00;99.90
32522;DHT22;18963;51.504;5.316;2022-11-20T02:13:04;-2.10;99.90
32522;DHT22;18963;51.504;5.316;2022-11-20T02:15:49;-2.10;99.90
32522;DHT22;18963;51.504;5.316;2022-11-20T02:18:15;-2.10;99.90
32522;DHT22;18963;51.504;5.316;2022-11-20T02:20:45;-2.10;99.90
32522;DHT22;18963;51.504;5.316;2022-11-20T02:23:20;-2.10;99.90
32522;DHT22;18963;51.504;5.316;2022-11-20T02:25:47;-2.10;99.90
32522;DHT22;18963;51.504;5.316;2022-11-20T02:28:13;-2.10;99.90
32522;DHT22;18963;51.504;5.316;2022-11-20T02:30:39;-2.10;99.90
32522;DHT22;18963;51.504;5.316;2022-11-20T02:33:05;-2.00;99.90
32522;DHT22;18963;51.504;5.316;2022-11-20T02:37:57;-1.90;99.90
32522;DHT22;18963;51.504;5.316;2022-11-20T02:40:24;-1.90;99.90
32522;DHT22;18963;51.504;5.316;2022-11-20T02:42:53;-1.80;99.90
32522;DHT22;18963;51.504;5.316;2022-11-20T02:45:18;-1.80;99.90
32522;DHT22;18963;51.504;5.316;2022-11-20T02:47:44;-1.70;99.90
32522;DHT22;18963;51.504;5.316;2022-11-20T02:50:09;-1.60;99.90
32522;DHT22;18963;51.504;5.316;2022-11-20T02:52:35;-1.60;99.90
32522;DHT22;18963;51.504;5.316;2022-11-20T02:55:01;-1.50;99.90
32522;DHT22;18963;51.504;5.316;2022-11-20T02:57:26;-1.40;99.90
32522;DHT22;18963;51.504;5.316;2022-11-20T02:59:51;-1.40;99.90
32522;DHT22;18963;51.504;5.316;2022-11-20T03:02:17;-1.30;99.90
32522;DHT22;18963;51.504;5.316;2022-11-20T03:04:42;-1.30;99.90
32522;DHT22;18963;51.504;5.316;2022-11-20T03:07:08;-1.20;99.90
32522;DHT22;18963;51.504;5.316;2022-11-20T03:09:35;-1.20;99.90
32522;DHT22;18963;51.504;5.316;2022-11-20T03:12:00;-1.10;99.90
32522;DHT22;18963;51.504;5.316;2022-11-20T03:14:26;-1.10;99.90
32522;DHT22;18963;51.504;5.316;2022-11-20T03:16:51;-1.00;99.90
32522;DHT22;18963;51.504;5.316;2022-11-20T03:19:17;-1.00;99.90
32522;DHT22;18963;51.504;5.316;2022-11-20T03:21:43;-1.00;99.90
32522;DHT22;18963;51.504;5.316;2022-11-20T03:24:08;-1.00;99.90
32522;DHT22;18963;51.504;5.316;2022-11-20T03:26:34;-1.00;99.90
32522;DHT22;18963;51.504;5.316;2022-11-20T03:29:00;-1.00;99.90
32522;DHT22;18963;51.504;5.316;2022-11-20T03:31:27;-0.90;99.90
32522;DHT22;18963;51.504;5.316;2022-11-20T03:33:53;-0.90;99.90
32522;DHT22;18963;51.504;5.316;2022-11-20T03:36:19;-0.90;99.90
32522;DHT22;18963;51.504;5.316;2022-11-20T03:38:45;-0.90;99.90
32522;DHT22;18963;51.504;5.316;2022-11-20T03:41:12;-0.90;99.90
32522;DHT22;18963;51.504;5.316;2022-11-20T03:43:37;-0.90;99.90
32522;DHT22;18963;51.504;5.316;2022-11-20T03:46:03;-0.90;99.90
32522;DHT22;18963;51.504;5.316;2022-11-20T03:48:29;-0.90;99.90
32522;DHT22;18963;51.504;5.316;2022-11-20T03:53:38;-0.90;99.90
32522;DHT22;18963;51.504;5.316;2022-11-20T03:56:04;-0.90;99.90
32522;DHT22;18963;51.504;5.316;2022-11-20T03:58:30;-0.90;99.90
32522;DHT22;18963;51.504;5.316;2022-11-20T04:00:55;-0.90;99.90
32522;DHT22;18963;51.504;5.316;2022-11-20T04:03:21;-1.00;99.90
32522;DHT22;18963;51.504;5.316;2022-11-20T04:05:46;-1.00;99.90
32522;DHT22;18963;51.504;5.316;2022-11-20T04:08:12;-1.00;99.90
32522;DHT22;18963;51.504;5.316;2022-11-20T04:10:37;-1.00;99.90
32522;DHT22;18963;51.504;5.316;2022-11-20T04:13:03;-1.10;99.90
32522;DHT22;18963;51.504;5.316;2022-11-20T04:15:28;-1.00;99.90
32522;DHT22;18963;51.504;5.316;2022-11-20T04:17:54;-1.00;99.90
32522;DHT22;18963;51.504;5.316;2022-11-20T04:20:19;-1.00;99.90
32522;DHT22;18963;51.504;5.316;2022-11-20T04:22:45;-1.10;99.90
32522;DHT22;18963;51.504;5.316;2022-11-20T04:25:10;-1.00;99.90
32522;DHT22;18963;51.504;5.316;2022-11-20T04:27:36;-1.00;99.90
32522;DHT22;18963;51.504;5.316;2022-11-20T04:30:01;-1.00;99.90
32522;DHT22;18963;51.504;5.316;2022-11-20T04:32:27;-1.00;99.90
32522;DHT22;18963;51.504;5.316;2022-11-20T04:34:52;-1.00;99.90
32522;DHT22;18963;51.504;5.316;2022-11-20T04:37:18;-0.90;99.90
32522;DHT22;18963;51.504;5.316;2022-11-20T04:39:43;-0.90;99.90
32522;DHT22;18963;51.504;5.316;2022-11-20T04:42:09;-0.90;99.90
32522;DHT22;18963;51.504;5.316;2022-11-20T04:44:53;-0.80;99.90
32522;DHT22;18963;51.504;5.316;2022-11-20T04:47:19;-0.80;99.90
32522;DHT22;18963;51.504;5.316;2022-11-20T04:49:44;-0.80;99.90
32522;DHT22;18963;51.504;5.316;2022-11-20T04:52:10;-0.80;99.90
32522;DHT22;18963;51.504;5.316;2022-11-20T04:54:35;-0.80;99.90
32522;DHT22;18963;51.504;5.316;2022-11-20T04:57:01;-0.80;99.90
32522;DHT22;18963;51.504;5.316;2022-11-20T04:59:26;-0.70;99.90
32522;DHT22;18963;51.504;5.316;2022-11-20T05:01:52;-0.70;99.90
32522;DHT22;18963;51.504;5.316;2022-11-20T05:04:17;-0.80;99.90
32522;DHT22;18963;51.504;5.316;2022-11-20T05:06:43;-0.70;99.90
32522;DHT22;18963;51.504;5.316;2022-11-20T05:09:08;-0.80;99.90
32522;DHT22;18963;51.504;5.316;2022-11-20T05:11:34;-0.80;99.90
32522;DHT22;18963;51.504;5.316;2022-11-20T05:13:59;-0.80;99.90
32522;DHT22;18963;51.504;5.316;2022-11-20T05:16:25;-0.80;99.90
32522;DHT22;18963;51.504;5.316;2022-11-20T05:18:51;-0.80;99.90
32522;DHT22;18963;51.504;5.316;2022-11-20T05:21:17;-0.90;99.90
32522;DHT22;18963;51.504;5.316;2022-11-20T05:23:43;-0.90;99.90
32522;DHT22;18963;51.504;5.316;2022-11-20T05:26:14;-0.90;99.90
32522;DHT22;18963;51.504;5.316;2022-11-20T05:28:40;-0.90;99.90
32522;DHT22;18963;51.504;5.316;2022-11-20T05:31:09;-0.90;99.90
32522;DHT22;18963;51.504;5.316;2022-11-20T05:33:35;-1.00;99.90
32522;DHT22;18963;51.504;5.316;2022-11-20T05:36:02;-1.00;99.90
32522;DHT22;18963;51.504;5.316;2022-11-20T05:38:27;-1.00;99.90
32522;DHT22;18963;51.504;5.316;2022-11-20T05:40:53;-0.90;99.90
32522;DHT22;18963;51.504;5.316;2022-11-20T05:43:18;-0.90;99.90
32522;DHT22;18963;51.504;5.316;2022-11-20T05:45:51;-0.90;99.90
32522;DHT22;18963;51.504;5.316;2022-11-20T05:48:16;-0.90;99.90
32522;DHT22;18963;51.504;5.316;2022-11-20T05:50:42;-0.90;99.90
32522;DHT22;18963;51.504;5.316;2022-11-20T05:53:07;-0.90;99.90
32522;DHT22;18963;51.504;5.316;2022-11-20T05:55:33;-0.90;99.90
32522;DHT22;18963;51.504;5.316;2022-11-20T05:57:58;-0.80;99.90
32522;DHT22;18963;51.504;5.316;2022-11-20T06:00:24;-0.80;99.90
32522;DHT22;18963;51.504;5.316;2022-11-20T06:02:49;-0.80;99.90
32522;DHT22;18963;51.504;5.316;2022-11-20T06:05:15;-0.80;99.90
32522;DHT22;18963;51.504;5.316;2022-11-20T06:07:40;-0.80;99.90
32522;DHT22;18963;51.504;5.316;2022-11-20T06:10:06;-0.70;99.90
32522;DHT22;18963;51.504;5.316;2022-11-20T06:12:31;-0.70;99.90
32522;DHT22;18963;51.504;5.316;2022-11-20T06:14:58;-0.70;99.90
32522;DHT22;18963;51.504;5.316;2022-11-20T06:17:23;-0.70;99.90
32522;DHT22;18963;51.504;5.316;2022-11-20T06:19:49;-0.60;99.90
32522;DHT22;18963;51.504;5.316;2022-11-20T06:22:14;-0.60;99.90
32522;DHT22;18963;51.504;5.316;2022-11-20T06:24:40;-0.60;99.90
32522;DHT22;18963;51.504;5.316;2022-11-20T06:27:05;-0.50;99.90
32522;DHT22;18963;51.504;5.316;2022-11-20T06:29:31;-0.50;99.90
32522;DHT22;18963;51.504;5.316;2022-11-20T06:31:56;-0.40;99.90
32522;DHT22;18963;51.504;5.316;2022-11-20T06:34:22;-0.40;99.90
32522;DHT22;18963;51.504;5.316;2022-11-20T06:36:47;-0.30;99.90
32522;DHT22;18963;51.504;5.316;2022-11-20T06:39:12;-0.30;99.90
32522;DHT22;18963;51.504;5.316;2022-11-20T06:41:38;-0.30;99.90
32522;DHT22;18963;51.504;5.316;2022-11-20T06:44:04;-0.30;99.90
32522;DHT22;18963;51.504;5.316;2022-11-20T06:46:30;-0.30;99.90
32522;DHT22;18963;51.504;5.316;2022-11-20T06:48:56;-0.20;99.90
32522;DHT22;18963;51.504;5.316;2022-11-20T06:51:23;-0.20;99.90
32522;DHT22;18963;51.504;5.316;2022-11-20T06:53:48;-0.20;99.90
32522;DHT22;18963;51.504;5.316;2022-11-20T06:56:14;-0.20;99.90
32522;DHT22;18963;51.504;5.316;2022-11-20T06:58:39;-0.20;99.90
32522;DHT22;18963;51.504;5.316;2022-11-20T07:01:12;-0.10;99.90
32522;DHT22;18963;51.504;5.316;2022-11-20T07:03:37;-0.10;99.90
32522;DHT22;18963;51.504;5.316;2022-11-20T07:06:03;-0.10;99.90
32522;DHT22;18963;51.504;5.316;2022-11-20T07:08:29;-0.10;99.90
32522;DHT22;18963;51.504;5.316;2022-11-20T07:10:58;0.00;99.90
32522;DHT22;18963;51.504;5.316;2022-11-20T07:13:25;0.00;99.90
32522;DHT22;18963;51.504;5.316;2022-11-20T07:15:50;0.00;99.90
32522;DHT22;18963;51.504;5.316;2022-11-20T07:18:16;0.10;99.90
32522;DHT22;18963;51.504;5.316;2022-11-20T07:20:41;0.10;99.90
32522;DHT22;18963;51.504;5.316;2022-11-20T07:23:07;0.10;99.90
32522;DHT22;18963;51.504;5.316;2022-11-20T07:25:32;0.10;99.90
32522;DHT22;18963;51.504;5.316;2022-11-20T07:27:58;0.20;99.90
32522;DHT22;18963;51.504;5.316;2022-11-20T07:30:23;0.20;99.90
32522;DHT22;18963;51.504;5.316;2022-11-20T07:32:52;0.30;99.90
32522;DHT22;18963;51.504;5.316;2022-11-20T07:35:18;0.30;99.90
32522;DHT22;18963;51.504;5.316;2022-11-20T07:37:44;0.30;99.90
32522;DHT22;18963;51.504;5.316;2022-11-20T07:40:11;0.30;99.90
32522;DHT22;18963;51.504;5.316;2022-11-20T07:42:37;0.30;99.90
32522;DHT22;18963;51.504;5.316;2022-11-20T07:45:02;0.30;99.90
32522;DHT22;18963;51.504;5.316;2022-11-20T07:47:28;0.30;99.90
32522;DHT22;18963;51.504;5.316;2022-11-20T07:49:53;0.30;99.90
32522;DHT22;18963;51.504;5.316;2022-11-20T07:52:19;0.30;99.90
32522;DHT22;18963;51.504;5.316;2022-11-20T07:54:44;0.40;99.90
32522;DHT22;18963;51.504;5.316;2022-11-20T07:57:10;0.40;99.90
32522;DHT22;18963;51.504;5.316;2022-11-20T07:59:35;0.50;99.90
32522;DHT22;18963;51.504;5.316;2022-11-20T08:02:01;0.50;99.90
32522;DHT22;18963;51.504;5.316;2022-11-20T08:04:26;0.60;99.90
32522;DHT22;18963;51.504;5.316;2022-11-20T08:06:52;0.60;99.90
32522;DHT22;18963;51.504;5.316;2022-11-20T08:09:17;0.70;99.90
32522;DHT22;18963;51.504;5.316;2022-11-20T08:11:43;0.80;99.90
32522;DHT22;18963;51.504;5.316;2022-11-20T08:14:27;0.80;99.90
32522;DHT22;18963;51.504;5.316;2022-11-20T08:16:53;0.90;99.90
32522;DHT22;18963;51.504;5.316;2022-11-20T08:19:18;1.00;99.90
32522;DHT22;18963;51.504;5.316;2022-11-20T08:21:44;1.00;99.90
32522;DHT22;18963;51.504;5.316;2022-11-20T08:24:10;1.00;99.90
32522;DHT22;18963;51.504;5.316;2022-11-20T08:26:36;1.10;99.90
32522;DHT22;18963;51.504;5.316;2022-11-20T08:29:02;1.10;99.90
32522;DHT22;18963;51.504;5.316;2022-11-20T08:31:28;1.10;99.90
32522;DHT22;18963;51.504;5.316;2022-11-20T08:33:55;1.10;99.90
32522;DHT22;18963;51.504;5.316;2022-11-20T08:36:21;1.20;99.90
32522;DHT22;18963;51.504;5.316;2022-11-20T08:38:47;1.10;99.90
32522;DHT22;18963;51.504;5.316;2022-11-20T08:41:13;1.20;99.90
32522;DHT22;18963;51.504;5.316;2022-11-20T08:46:21;1.30;99.90
32522;DHT22;18963;51.504;5.316;2022-11-20T08:48:46;1.30;99.90
32522;DHT22;18963;51.504;5.316;2022-11-20T08:51:12;1.40;99.90
32522;DHT22;18963;51.504;5.316;2022-11-20T08:53:38;1.40;99.90
32522;DHT22;18963;51.504;5.316;2022-11-20T08:56:04;1.50;99.90
32522;DHT22;18963;51.504;5.316;2022-11-20T08:58:29;1.60;99.90
32522;DHT22;18963;51.504;5.316;2022-11-20T09:00:55;1.60;99.90
32522;DHT22;18963;51.504;5.316;2022-11-20T09:03:20;1.70;99.90
32522;DHT22;18963;51.504;5.316;2022-11-20T09:05:46;1.80;99.90
32522;DHT22;18963;51.504;5.316;2022-11-20T09:08:11;1.80;99.90
32522;DHT22;18963;51.504;5.316;2022-11-20T09:10:37;1.80;99.90
32522;DHT22;18963;51.504;5.316;2022-11-20T09:13:04;1.90;99.90
32522;DHT22;18963;51.504;5.316;2022-11-20T09:15:30;1.90;99.90
32522;DHT22;18963;51.504;5.316;2022-11-20T09:17:56;1.90;99.90
32522;DHT22;18963;51.504;5.316;2022-11-20T09:20:23;2.00;99.90
32522;DHT22;18963;51.504;5.316;2022-11-20T09:22:49;2.00;99.90
32522;DHT22;18963;51.504;5.316;2022-11-20T09:25:14;2.10;99.90
32522;DHT22;18963;51.504;5.316;2022-11-20T09:27:40;2.10;99.90
32522;DHT22;18963;51.504;5.316;2022-11-20T09:30:08;2.20;99.90
32522;DHT22;18963;51.504;5.316;2022-11-20T09:32:34;2.20;99.90
32522;DHT22;18963;51.504;5.316;2022-11-20T09:35:01;2.30;99.90
32522;DHT22;18963;51.504;5.316;2022-11-20T09:37:26;2.30;99.90
32522;DHT22;18963;51.504;5.316;2022-11-20T09:39:52;2.30;99.90
32522;DHT22;18963;51.504;5.316;2022-11-20T09:45:09;2.40;99.90
32522;DHT22;18963;51.504;5.316;2022-11-20T09:50:19;2.40;99.90
32522;DHT22;18963;51.504;5.316;2022-11-20T09:55:29;2.40;99.90
32522;DHT22;18963;51.504;5.316;2022-11-20T09:57:56;2.50;99.90
32522;DHT22;18963;51.504;5.316;2022-11-20T10:00:22;2.50;99.90
32522;DHT22;18963;51.504;5.316;2022-11-20T10:02:52;2.60;99.90
32522;DHT22;18963;51.504;5.316;2022-11-20T10:05:22;2.50;99.90
32522;DHT22;18963;51.504;5.316;2022-11-20T10:07:55;2.60;99.90
32522;DHT22;18963;51.504;5.316;2022-11-20T10:10:40;2.60;99.90
32522;DHT22;18963;51.504;5.316;2022-11-20T10:13:19;2.70;99.90
32522;DHT22;18963;51.504;5.316;2022-11-20T10:23:45;2.90;99.90
32522;DHT22;18963;51.504;5.316;2022-11-20T10:26:19;3.00;99.90
32522;DHT22;18963;51.504;5.316;2022-11-20T10:29:00;3.00;99.90
32522;DHT22;18963;51.504;5.316;2022-11-20T10:31:31;3.10;99.90
32522;DHT22;18963;51.504;5.316;2022-11-20T10:33:59;3.20;99.90
32522;DHT22;18963;51.504;5.316;2022-11-20T10:36:27;3.20;99.90
32522;DHT22;18963;51.504;5.316;2022-11-20T10:38:55;3.20;99.90
32522;DHT22;18963;51.504;5.316;2022-11-20T10:41:40;3.30;99.90
32522;DHT22;18963;51.504;5.316;2022-11-20T10:44:15;3.30;99.90
32522;DHT22;18963;51.504;5.316;2022-11-20T10:47:05;3.30;99.90
32522;DHT22;18963;51.504;5.316;2022-11-20T10:49:30;3.30;99.90
32522;DHT22;18963;51.504;5.316;2022-11-20T10:52:09;3.30;99.90
32522;DHT22;18963;51.504;5.316;2022-11-20T10:54:40;3.40;99.90
32522;DHT22;18963;51.504;5.316;2022-11-20T10:57:17;3.40;99.90
32522;DHT22;18963;51.504;5.316;2022-11-20T11:02:49;3.50;99.90
32522;DHT22;18963;51.504;5.316;2022-11-20T11:07:40;3.60;99.90
32522;DHT22;18963;51.504;5.316;2022-11-20T11:10:14;3.60;99.90
32522;DHT22;18963;51.504;5.316;2022-11-20T11:12:42;3.60;99.90
32522;DHT22;18963;51.504;5.316;2022-11-20T11:15:24;3.60;99.90
32522;DHT22;18963;51.504;5.316;2022-11-20T11:17:50;3.60;99.90
32522;DHT22;18963;51.504;5.316;2022-11-20T11:20:17;3.50;99.90
32522;DHT22;18963;51.504;5.316;2022-11-20T11:22:44;3.40;99.90
32522;DHT22;18963;51.504;5.316;2022-11-20T11:25:21;3.40;99.90
32522;DHT22;18963;51.504;5.316;2022-11-20T11:27:47;3.40;99.90
32522;DHT22;18963;51.504;5.316;2022-11-20T11:30:14;3.40;99.90
32522;DHT22;18963;51.504;5.316;2022-11-20T11:32:40;3.40;99.90
32522;DHT22;18963;51.504;5.316;2022-11-20T11:35:06;3.40;99.90
32522;DHT22;18963;51.504;5.316;2022-11-20T11:37:37;3.40;99.90
32522;DHT22;18963;51.504;5.316;2022-11-20T11:40:04;3.40;99.90
32522;DHT22;18963;51.504;5.316;2022-11-20T11:42:30;3.40;99.90
32522;DHT22;18963;51.504;5.316;2022-11-20T11:44:56;3.40;99.90
32522;DHT22;18963;51.504;5.316;2022-11-20T11:50:15;3.40;99.90
32522;DHT22;18963;51.504;5.316;2022-11-20T11:55:14;3.50;99.90
32522;DHT22;18963;51.504;5.316;2022-11-20T12:00:09;3.60;99.90
32522;DHT22;18963;51.504;5.316;2022-11-20T12:02:39;3.70;99.90
32522;DHT22;18963;51.504;5.316;2022-11-20T12:05:21;3.70;99.90
32522;DHT22;18963;51.504;5.316;2022-11-20T12:13:47;3.70;99.90
32522;DHT22;18963;51.504;5.316;2022-11-20T12:15:52;3.70;99.90
32522;DHT22;18963;51.504;5.316;2022-11-20T12:18:18;3.70;99.90
32522;DHT22;18963;51.504;5.316;2022-11-20T12:21:07;3.80;99.90
32522;DHT22;18963;51.504;5.316;2022-11-20T12:23:52;3.90;99.90
32522;DHT22;18963;51.504;5.316;2022-11-20T12:36:39;4.00;99.90
32522;DHT22;18963;51.504;5.316;2022-11-20T12:44:50;4.20;99.90
32522;DHT22;18963;51.504;5.316;2022-11-20T12:53:31;4.30;99.90
32522;DHT22;18963;51.504;5.316;2022-11-20T12:58:05;4.50;99.90
32522;DHT22;18963;51.504;5.316;2022-11-20T13:00:33;4.60;99.90
32522;DHT22;18963;51.504;5.316;2022-11-20T13:08:32;4.70;99.90
32522;DHT22;18963;51.504;5.316;2022-11-20T13:16:00;4.80;99.90
32522;DHT22;18963;51.504;5.316;2022-11-20T13:18:27;4.90;99.90
32522;DHT22;18963;51.504;5.316;2022-11-20T13:20:54;4.90;99.90
32522;DHT22;18963;51.504;5.316;2022-11-20T13:23:26;4.90;99.90
32522;DHT22;18963;51.504;5.316;2022-11-20T13:28:36;5.00;99.90
32522;DHT22;18963;51.504;5.316;2022-11-20T13:31:02;5.10;99.90
32522;DHT22;18963;51.504;5.316;2022-11-20T13:33:32;5.00;99.90
32522;DHT22;18963;51.504;5.316;2022-11-20T13:35:59;5.00;99.90
32522;DHT22;18963;51.504;5.316;2022-11-20T13:38:25;5.00;99.90
32522;DHT22;18963;51.504;5.316;2022-11-20T13:41:00;5.00;99.90
32522;DHT22;18963;51.504;5.316;2022-11-20T13:43:49;5.00;99.90
32522;DHT22;18963;51.504;5.316;2022-11-20T13:46:15;5.00;99.90
32522;DHT22;18963;51.504;5.316;2022-11-20T13:48:41;5.00;99.90
32522;DHT22;18963;51.504;5.316;2022-11-20T13:53:42;5.10;99.90
32522;DHT22;18963;51.504;5.316;2022-11-20T13:58:53;5.20;99.90
32522;DHT22;18963;51.504;5.316;2022-11-20T14:01:26;5.20;99.90
32522;DHT22;18963;51.504;5.316;2022-11-20T14:03:52;5.20;99.90
32522;DHT22;18963;51.504;5.316;2022-11-20T14:06:41;5.20;99.90
32522;DHT22;18963;51.504;5.316;2022-11-20T14:09:03;5.30;99.90
32522;DHT22;18963;51.504;5.316;2022-11-20T14:11:30;5.30;99.90
32522;DHT22;18963;51.504;5.316;2022-11-20T14:14:00;5.40;99.90
32522;DHT22;18963;51.504;5.316;2022-11-20T14:16:27;5.50;99.90
32522;DHT22;18963;51.504;5.316;2022-11-20T14:18:53;5.50;99.90
32522;DHT22;18963;51.504;5.316;2022-11-20T14:21:23;5.50;99.90
32522;DHT22;18963;51.504;5.316;2022-11-20T14:23:48;5.50;99.90
32522;DHT22;18963;51.504;5.316;2022-11-20T14:26:14;5.50;99.90
32522;DHT22;18963;51.504;5.316;2022-11-20T14:28:43;5.50;99.90
32522;DHT22;18963;51.504;5.316;2022-11-20T14:31:17;5.40;99.90
32522;DHT22;18963;51.504;5.316;2022-11-20T14:33:44;5.40;99.90
32522;DHT22;18963;51.504;5.316;2022-11-20T14:36:15;5.40;99.90
32522;DHT22;18963;51.504;5.316;2022-11-20T14:38:41;5.40;99.90
32522;DHT22;18963;51.504;5.316;2022-11-20T14:41:08;5.40;99.90
32522;DHT22;18963;51.504;5.316;2022-11-20T14:43:34;5.40;99.90
32522;DHT22;18963;51.504;5.316;2022-11-20T14:46:03;5.40;99.90
32522;DHT22;18963;51.504;5.316;2022-11-20T14:48:30;5.40;99.90
32522;DHT22;18963;51.504;5.316;2022-11-20T14:50:59;5.40;99.90
32522;DHT22;18963;51.504;5.316;2022-11-20T14:53:25;5.40;99.90
32522;DHT22;18963;51.504;5.316;2022-11-20T14:55:54;5.50;99.90
32522;DHT22;18963;51.504;5.316;2022-11-20T14:58:21;5.50;99.90
32522;DHT22;18963;51.504;5.316;2022-11-20T15:00:58;5.50;99.90
32522;DHT22;18963;51.504;5.316;2022-11-20T15:03:33;5.60;99.90
32522;DHT22;18963;51.504;5.316;2022-11-20T15:05:59;5.60;99.90
32522;DHT22;18963;51.504;5.316;2022-11-20T15:08:24;5.50;99.90
32522;DHT22;18963;51.504;5.316;2022-11-20T15:10:51;5.50;99.90
32522;DHT22;18963;51.504;5.316;2022-11-20T15:13:30;5.50;99.90
32522;DHT22;18963;51.504;5.316;2022-11-20T15:15:57;5.60;99.90
32522;DHT22;18963;51.504;5.316;2022-11-20T15:18:27;5.60;99.90
32522;DHT22;18963;51.504;5.316;2022-11-20T15:20:54;5.60;99.90
32522;DHT22;18963;51.504;5.316;2022-11-20T15:23:20;5.60;99.90
32522;DHT22;18963;51.504;5.316;2022-11-20T15:25:45;5.60;99.90
32522;DHT22;18963;51.504;5.316;2022-11-20T15:30:44;5.60;99.90
32522;DHT22;18963;51.504;5.316;2022-11-20T15:33:10;5.60;99.90
32522;DHT22;18963;51.504;5.316;2022-11-20T15:35:35;5.70;99.90
32522;DHT22;18963;51.504;5.316;2022-11-20T15:38:01;5.70;99.90
32522;DHT22;18963;51.504;5.316;2022-11-20T15:40:26;5.70;99.90
32522;DHT22;18963;51.504;5.316;2022-11-20T15:42:52;5.70;99.90
32522;DHT22;18963;51.504;5.316;2022-11-20T15:45:34;5.70;99.90
32522;DHT22;18963;51.504;5.316;2022-11-20T15:47:59;5.80;99.90
32522;DHT22;18963;51.504;5.316;2022-11-20T15:50:27;5.80;99.90
32522;DHT22;18963;51.504;5.316;2022-11-20T15:52:54;5.80;99.90
32522;DHT22;18963;51.504;5.316;2022-11-20T15:55:20;5.80;99.90
32522;DHT22;18963;51.504;5.316;2022-11-20T15:57:45;5.80;99.90
32522;DHT22;18963;51.504;5.316;2022-11-20T16:00:11;5.80;99.90
32522;DHT22;18963;51.504;5.316;2022-11-20T16:02:37;5.80;99.90
32522;DHT22;18963;51.504;5.316;2022-11-20T16:05:02;5.90;99.90
32522;DHT22;18963;51.504;5.316;2022-11-20T16:07:31;5.90;99.90
32522;DHT22;18963;51.504;5.316;2022-11-20T16:09:59;5.90;99.90
32522;DHT22;18963;51.504;5.316;2022-11-20T16:12:24;5.90;99.90
32522;DHT22;18963;51.504;5.316;2022-11-20T16:15:12;5.90;99.90
32522;DHT22;18963;51.504;5.316;2022-11-20T16:17:56;6.00;99.90
32522;DHT22;18963;51.504;5.316;2022-11-20T16:20:22;6.00;99.90
32522;DHT22;18963;51.504;5.316;2022-11-20T16:22:47;6.00;99.90
32522;DHT22;18963;51.504;5.316;2022-11-20T16:25:13;6.10;99.90
32522;DHT22;18963;51.504;5.316;2022-11-20T16:27:41;6.10;99.90
32522;DHT22;18963;51.504;5.316;2022-11-20T16:30:09;6.10;99.90
32522;DHT22;18963;51.504;5.316;2022-11-20T16:32:35;6.10;99.90
32522;DHT22;18963;51.504;5.316;2022-11-20T16:35:07;6.20;99.90
32522;DHT22;18963;51.504;5.316;2022-11-20T16:37:32;6.20;99.90
32522;DHT22;18963;51.504;5.316;2022-11-20T16:39:58;6.20;99.90
32522;DHT22;18963;51.504;5.316;2022-11-20T16:42:23;6.10;99.90
32522;DHT22;18963;51.504;5.316;2022-11-20T16:44:49;6.10;99.90
32522;DHT22;18963;51.504;5.316;2022-11-20T16:47:14;6.10;99.90
32522;DHT22;18963;51.504;5.316;2022-11-20T16:49:40;6.10;99.90
32522;DHT22;18963;51.504;5.316;2022-11-20T16:52:05;6.20;99.90
32522;DHT22;18963;51.504;5.316;2022-11-20T16:54:32;6.20;99.90
32522;DHT22;18963;51.504;5.316;2022-11-20T16:56:58;6.20;99.90
32522;DHT22;18963;51.504;5.316;2022-11-20T16:59:24;6.30;99.90
32522;DHT22;18963;51.504;5.316;2022-11-20T17:01:49;6.30;99.90
32522;DHT22;18963;51.504;5.316;2022-11-20T17:04:15;6.40;99.90
32522;DHT22;18963;51.504;5.316;2022-11-20T17:06:41;6.50;99.90
32522;DHT22;18963;51.504;5.316;2022-11-20T17:09:08;6.50;99.90
32522;DHT22;18963;51.504;5.316;2022-11-20T17:11:34;6.50;99.90